createdAt,value
2019-02-22T00:02:24.204Z,26.20
2019-02-22T00:05:16.892Z,26.10
2019-02-22T00:08:09.214Z,26.10
2019-02-22T00:11:01.490Z,26.10
2019-02-22T00:13:53.753Z,26.10
2019-02-22T00:16:46.801Z,26.20
2019-02-22T00:19:38.912Z,26.10
2019-02-22T00:22:30.856Z,26.20
2019-02-22T00:25:22.679Z,26.10
2019-02-22T00:28:14.841Z,26.20
2019-02-22T00:31:07.542Z,26.20
2019-02-22T00:34:00.982Z,26.10
2019-02-22T00:36:53.300Z,26.20
2019-02-22T00:39:46.546Z,26.30
2019-02-22T00:42:38.184Z,26.30
2019-02-22T00:45:30.311Z,26.40
2019-02-22T00:48:22.470Z,26.40
2019-02-22T00:51:14.581Z,26.30
2019-02-22T00:54:06.688Z,26.30
2019-02-22T00:56:58.844Z,26.40
2019-02-22T00:59:51.043Z,26.30
2019-02-22T01:02:43.212Z,26.30
2019-02-22T01:05:35.321Z,26.40
2019-02-22T01:08:28.781Z,26.40
2019-02-22T01:11:22.146Z,26.30
2019-02-22T01:14:14.217Z,26.30
2019-02-22T01:17:06.488Z,26.40
2019-02-22T01:19:58.804Z,26.30
2019-02-22T01:22:50.970Z,26.30
2019-02-22T01:25:43.202Z,26.30
2019-02-22T01:28:35.351Z,26.30
2019-02-22T01:31:27.258Z,26.30
2019-02-22T01:34:19.322Z,26.30
2019-02-22T01:37:11.461Z,26.30
2019-02-22T01:40:03.332Z,26.30
2019-02-22T01:42:55.279Z,26.30
2019-02-22T01:45:47.238Z,26.30
2019-02-22T01:48:39.168Z,26.30
2019-02-22T01:51:31.392Z,26.30
2019-02-22T01:54:23.665Z,26.30
2019-02-22T01:57:15.877Z,26.30
2019-02-22T02:00:07.979Z,26.30
2019-02-22T02:03:00.657Z,26.30
2019-02-22T02:05:52.673Z,26.30
2019-02-22T02:08:44.732Z,26.30
2019-02-22T02:11:37.192Z,26.30
2019-02-22T02:14:29.432Z,26.30
2019-02-22T02:17:21.362Z,26.30
2019-02-22T02:20:13.609Z,26.30
2019-02-22T02:23:05.585Z,26.30
2019-02-22T02:25:57.776Z,26.30
2019-02-22T02:28:52.191Z,26.30
2019-02-22T02:31:43.836Z,26.30
2019-02-22T02:34:35.722Z,26.30
2019-02-22T02:37:27.823Z,26.20
2019-02-22T02:40:20.543Z,26.20
2019-02-22T02:43:12.750Z,26.20
2019-02-22T02:46:05.006Z,26.20
2019-02-22T02:48:57.339Z,26.20
2019-02-22T02:51:50.466Z,26.20
2019-02-22T02:54:43.586Z,26.10
2019-02-22T02:57:35.954Z,26.20
2019-02-22T03:00:28.261Z,26.20
2019-02-22T03:03:20.555Z,26.20
2019-02-22T03:06:41.118Z,26.20
2019-02-22T03:09:33.614Z,26.30
2019-02-22T03:12:25.757Z,26.30
2019-02-22T03:15:19.832Z,26.30
2019-02-22T03:18:11.539Z,26.30
2019-02-22T03:21:04.935Z,26.30
2019-02-22T03:23:57.578Z,26.30
2019-02-22T03:26:49.878Z,26.30
2019-02-22T03:29:43.225Z,26.40
2019-02-22T03:32:36.676Z,26.40
2019-02-22T03:35:28.800Z,26.30
2019-02-22T03:38:20.944Z,26.40
2019-02-22T03:41:13.318Z,26.40
2019-02-22T03:44:05.572Z,26.40
2019-02-22T03:46:58.022Z,26.40
2019-02-22T03:49:50.002Z,26.40
2019-02-22T03:52:54.529Z,26.40
2019-02-22T03:55:47.316Z,26.40
2019-02-22T03:58:39.766Z,26.50
2019-02-22T04:01:32.699Z,26.50
2019-02-22T04:04:25.380Z,26.50
2019-02-22T04:07:18.496Z,26.50
2019-02-22T04:10:10.989Z,26.50
2019-02-22T04:13:03.815Z,26.50
2019-02-22T04:15:56.313Z,26.50
2019-02-22T04:18:49.240Z,26.50
2019-02-22T04:21:41.346Z,26.50
2019-02-22T04:24:35.163Z,26.60
2019-02-22T04:27:39.868Z,26.60
2019-02-22T04:30:33.928Z,26.60
2019-02-22T04:33:27.923Z,26.60
2019-02-22T04:36:30.902Z,26.60
2019-02-22T04:39:23.159Z,26.60
2019-02-22T04:42:17.339Z,26.60
2019-02-22T04:45:18.336Z,26.60
2019-02-22T04:48:13.309Z,26.60
2019-02-22T04:51:08.004Z,26.60
2019-02-22T04:54:04.495Z,26.60
2019-02-22T04:56:57.742Z,26.60
2019-02-22T04:59:55.574Z,26.70
2019-02-22T05:02:49.316Z,26.60
2019-02-22T05:05:41.732Z,26.60
2019-02-22T05:08:40.109Z,26.60
2019-02-22T05:11:33.986Z,26.60
2019-02-22T05:14:27.526Z,26.60
2019-02-22T05:17:44.252Z,26.60
2019-02-22T05:20:45.917Z,26.60
2019-02-22T05:24:04.733Z,26.60
2019-02-22T05:27:26.636Z,26.70
2019-02-22T05:30:42.217Z,26.70
2019-02-22T05:33:51.534Z,26.80
2019-02-22T05:37:27.651Z,26.80
2019-02-22T05:40:23.961Z,26.70
2019-02-22T05:43:16.179Z,26.70
2019-02-22T05:46:08.440Z,26.70
2019-02-22T05:49:00.619Z,26.80
2019-02-22T05:55:47.655Z,26.90
2019-02-22T05:58:57.615Z,27.00
2019-02-22T06:03:14.445Z,27.00
2019-02-22T06:10:06.235Z,27.10
2019-02-22T06:12:59.565Z,27.10
2019-02-22T06:16:25.123Z,27.10
2019-02-22T06:19:17.417Z,27.10
2019-02-22T06:22:35.766Z,27.20
2019-02-22T06:25:36.149Z,27.20
2019-02-22T06:28:36.873Z,27.30
2019-02-22T06:31:36.933Z,27.40
2019-02-22T06:34:41.677Z,27.30
2019-02-22T06:37:41.919Z,27.40
2019-02-22T06:40:48.273Z,27.40
2019-02-22T06:44:06.559Z,27.40
2019-02-22T06:47:00.754Z,27.40
2019-02-22T06:49:55.572Z,27.40
2019-02-22T06:53:01.822Z,27.40
2019-02-22T06:56:30.914Z,27.50
2019-02-22T06:59:24.590Z,27.50
2019-02-22T07:02:23.696Z,27.50
2019-02-22T07:05:16.231Z,27.50
2019-02-22T07:08:09.288Z,27.50
2019-02-22T07:11:17.748Z,27.50
2019-02-22T07:17:24.105Z,27.50
2019-02-22T07:20:17.696Z,27.60
2019-02-22T07:23:12.106Z,27.60
2019-02-22T07:29:23.558Z,27.60
2019-02-22T07:32:16.976Z,27.50
2019-02-22T07:35:13.987Z,27.70
2019-02-22T07:38:08.685Z,27.60
2019-02-22T07:41:00.688Z,27.60
2019-02-22T07:43:54.265Z,27.60
2019-02-22T07:46:49.104Z,27.60
2019-02-22T07:49:41.911Z,27.60
2019-02-22T07:52:34.416Z,27.50
2019-02-22T07:55:29.260Z,27.50
2019-02-22T07:58:21.899Z,27.50
2019-02-22T08:01:27.400Z,27.50
2019-02-22T08:04:22.503Z,27.60
2019-02-22T08:07:15.908Z,27.60
2019-02-22T08:10:11.254Z,27.60
2019-02-22T08:13:05.203Z,27.60
2019-02-22T08:15:59.806Z,27.60
2019-02-22T08:19:05.081Z,27.60
2019-02-22T08:22:00.205Z,27.60
2019-02-22T08:24:55.265Z,27.60
2019-02-22T08:28:04.872Z,27.60
2019-02-22T08:31:04.432Z,27.60
2019-02-22T08:33:58.153Z,27.60
2019-02-22T08:36:51.688Z,27.70
2019-02-22T08:39:44.646Z,27.70
2019-02-22T08:42:39.398Z,27.70
2019-02-22T08:45:38.689Z,27.70
2019-02-22T08:48:33.593Z,27.70
2019-02-22T08:51:28.564Z,27.70
2019-02-22T08:54:20.921Z,27.70
2019-02-22T08:57:21.868Z,27.70
2019-02-22T09:00:14.428Z,27.70
2019-02-22T09:03:10.771Z,27.70
2019-02-22T09:06:03.265Z,27.80
2019-02-22T09:08:56.052Z,27.80
2019-02-22T09:11:49.609Z,27.80
2019-02-22T09:14:45.748Z,27.80
2019-02-22T09:17:45.050Z,27.80
2019-02-22T09:20:40.168Z,27.80
2019-02-22T09:23:35.991Z,27.80
2019-02-22T09:26:30.829Z,27.80
2019-02-22T09:29:31.580Z,27.80
2019-02-22T09:32:26.720Z,27.70
2019-02-22T09:35:19.855Z,27.80
2019-02-22T09:38:12.773Z,27.80
2019-02-22T09:41:10.348Z,27.80
2019-02-22T09:44:04.553Z,27.70
2019-02-22T09:47:13.430Z,27.70
2019-02-22T09:50:08.542Z,27.80
2019-02-22T09:53:02.636Z,27.90
2019-02-22T09:56:01.303Z,27.90
2019-02-22T09:58:54.059Z,27.80
2019-02-22T10:01:47.614Z,27.80
2019-02-22T10:04:41.556Z,27.80
2019-02-22T10:07:35.840Z,27.80
2019-02-22T10:10:28.552Z,27.80
2019-02-22T10:13:20.748Z,27.80
2019-02-22T10:16:13.687Z,27.80
2019-02-22T10:19:07.680Z,27.80
2019-02-22T10:22:04.357Z,27.80
2019-02-22T10:25:01.294Z,27.80
2019-02-22T10:27:59.768Z,27.80
2019-02-22T10:30:52.452Z,27.80
2019-02-22T10:33:45.292Z,27.90
2019-02-22T10:36:45.295Z,27.80
2019-02-22T10:39:50.319Z,27.80
2019-02-22T10:42:49.491Z,27.90
2019-02-22T10:45:52.154Z,27.90
2019-02-22T10:48:52.821Z,27.90
2019-02-22T10:51:48.884Z,28.00
2019-02-22T10:54:47.067Z,28.00
2019-02-22T10:57:41.820Z,28.00
2019-02-22T11:00:35.777Z,27.90
2019-02-22T11:03:29.897Z,28.00
2019-02-22T11:06:25.479Z,28.00
2019-02-22T11:09:19.776Z,28.00
2019-02-22T11:12:18.001Z,27.90
2019-02-22T11:15:10.979Z,27.90
2019-02-22T11:18:06.883Z,27.90
2019-02-22T11:20:58.481Z,27.90
2019-02-22T11:23:52.792Z,27.90
2019-02-22T11:26:49.083Z,27.90
2019-02-22T11:29:43.107Z,27.90
2019-02-22T11:32:55.068Z,28.00
2019-02-22T11:35:46.690Z,28.00
2019-02-22T11:38:43.333Z,27.90
2019-02-22T11:41:37.018Z,28.00
2019-02-22T11:44:39.894Z,28.00
2019-02-22T11:47:29.078Z,28.00
2019-02-22T11:50:22.562Z,28.10
2019-02-22T11:53:17.622Z,28.10
2019-02-22T11:56:13.136Z,28.10
2019-02-22T11:59:08.069Z,28.20
2019-02-22T12:02:01.347Z,28.10
2019-02-22T12:04:55.675Z,28.10
2019-02-22T12:07:50.213Z,28.10
2019-02-22T12:10:45.339Z,28.10
2019-02-22T12:13:42.413Z,28.10
2019-02-22T12:16:36.386Z,28.10
2019-02-22T12:19:30.195Z,28.10
2019-02-22T12:22:22.809Z,28.10
2019-02-22T12:25:19.810Z,28.10
2019-02-22T12:28:14.559Z,28.10
2019-02-22T12:31:07.618Z,28.10
2019-02-22T12:34:14.367Z,28.10
2019-02-22T12:37:14.835Z,28.10
2019-02-22T12:40:10.719Z,28.10
2019-02-22T12:43:04.489Z,28.10
2019-02-22T12:46:00.675Z,28.10
2019-02-22T12:48:52.957Z,28.10
2019-02-22T12:51:45.454Z,28.10
2019-02-22T12:54:39.344Z,28.10
2019-02-22T12:57:32.220Z,28.10
2019-02-22T13:00:24.193Z,28.20
2019-02-22T13:03:20.661Z,28.10
2019-02-22T13:06:22.446Z,28.10
2019-02-22T13:09:36.283Z,28.00
2019-02-22T13:12:31.955Z,27.90
2019-02-22T13:15:46.043Z,27.80
2019-02-22T13:18:48.250Z,27.80
2019-02-22T13:21:54.505Z,27.80
2019-02-22T13:24:57.202Z,27.90
2019-02-22T13:28:06.935Z,27.90
2019-02-22T13:31:09.248Z,27.80
2019-02-22T13:34:13.591Z,27.80
2019-02-22T13:37:07.128Z,27.80
2019-02-22T13:40:02.034Z,27.80
2019-02-22T13:42:55.706Z,27.80
2019-02-22T13:45:48.846Z,27.80
2019-02-22T13:48:41.856Z,27.80
2019-02-22T13:51:35.096Z,27.70
2019-02-22T13:54:27.681Z,27.70
2019-02-22T13:57:20.219Z,27.70
2019-02-22T14:00:14.455Z,27.70
2019-02-22T14:03:07.533Z,27.80
2019-02-22T14:05:59.878Z,27.80
2019-02-22T14:08:52.633Z,27.80
2019-02-22T14:11:48.071Z,27.80
2019-02-22T14:14:39.237Z,27.80
2019-02-22T14:17:32.496Z,27.80
2019-02-22T14:20:24.931Z,27.80
2019-02-22T14:23:17.413Z,27.80
2019-02-22T14:26:09.886Z,27.80
2019-02-22T14:29:02.020Z,27.80
2019-02-22T14:31:54.620Z,27.80
2019-02-22T14:34:46.713Z,27.70
2019-02-22T14:37:39.949Z,27.70
2019-02-22T14:40:31.990Z,27.70
2019-02-22T14:43:24.847Z,27.70
2019-02-22T14:46:25.524Z,27.70
2019-02-22T14:49:10.626Z,27.70
2019-02-22T14:52:02.836Z,27.70
2019-02-22T14:54:54.967Z,27.70
2019-02-22T14:57:46.931Z,27.70
2019-02-22T15:00:39.238Z,27.70
2019-02-22T15:03:31.620Z,27.70
2019-02-22T15:06:24.322Z,27.60
2019-02-22T15:09:16.805Z,27.60
2019-02-22T15:12:11.792Z,27.60
2019-02-22T15:15:03.361Z,27.60
2019-02-22T15:17:58.992Z,27.60
2019-02-22T15:20:51.587Z,27.60
2019-02-22T15:23:43.924Z,27.60
2019-02-22T15:26:36.756Z,27.60
2019-02-22T15:29:30.176Z,27.60
2019-02-22T15:32:23.550Z,27.60
2019-02-22T15:35:16.242Z,27.60
2019-02-22T15:38:10.135Z,27.50
2019-02-22T15:41:03.263Z,27.60
2019-02-22T15:43:57.201Z,27.50
2019-02-22T15:46:49.139Z,27.50
2019-02-22T15:49:41.888Z,27.50
2019-02-22T15:52:34.566Z,27.50
2019-02-22T15:55:27.744Z,27.50
2019-02-22T15:58:20.060Z,27.50
2019-02-22T16:01:14.481Z,27.50
2019-02-22T16:04:14.451Z,27.50
2019-02-22T16:07:11.172Z,27.50
2019-02-22T16:10:06.136Z,27.50
2019-02-22T16:12:59.920Z,27.50
2019-02-22T16:15:52.592Z,27.50
2019-02-22T16:18:45.281Z,27.50
2019-02-22T16:21:37.632Z,27.50
2019-02-22T16:24:30.208Z,27.50
2019-02-22T16:27:22.931Z,27.50
2019-02-22T16:30:17.608Z,27.30
2019-02-22T16:33:10.531Z,27.30
2019-02-22T16:36:03.337Z,27.20
2019-02-22T16:38:57.308Z,27.20
2019-02-22T16:41:50.034Z,27.20
2019-02-22T16:44:42.021Z,27.20
2019-02-22T16:47:40.051Z,27.20
2019-02-22T16:50:29.025Z,27.20
2019-02-22T16:53:21.177Z,27.20
2019-02-22T16:56:15.166Z,27.10
2019-02-22T16:59:07.657Z,27.10
2019-02-22T17:02:00.302Z,27.10
2019-02-22T17:04:53.186Z,27.10
2019-02-22T17:07:46.481Z,27.20
2019-02-22T17:10:38.958Z,27.10
2019-02-22T17:13:31.421Z,27.20
2019-02-22T17:16:23.970Z,27.10
2019-02-22T17:19:17.189Z,27.10
2019-02-22T17:22:10.408Z,27.20
2019-02-22T17:25:02.629Z,27.20
2019-02-22T17:27:55.279Z,27.20
2019-02-22T17:30:47.511Z,27.10
2019-02-22T17:33:40.279Z,27.20
2019-02-22T17:36:32.257Z,27.10
2019-02-22T17:39:24.452Z,27.10
2019-02-22T17:42:16.754Z,27.10
2019-02-22T17:45:08.867Z,27.10
2019-02-22T17:48:00.840Z,27.10
2019-02-22T17:50:52.805Z,27.10
2019-02-22T17:53:45.062Z,27.10
2019-02-22T17:56:36.720Z,27.10
2019-02-22T17:59:29.955Z,27.10
2019-02-22T18:02:22.064Z,27.10
2019-02-22T18:05:14.895Z,27.10
2019-02-22T18:08:07.059Z,27.10
2019-02-22T18:10:59.374Z,27.10
2019-02-22T18:13:51.515Z,27.10
2019-02-22T18:16:43.486Z,27.10
2019-02-22T18:19:36.019Z,27.10
2019-02-22T18:22:27.866Z,27.10
2019-02-22T18:25:20.746Z,27.10
2019-02-22T18:28:13.195Z,27.10
2019-02-22T18:31:05.915Z,27.10
2019-02-22T18:33:58.446Z,27.10
2019-02-22T18:36:50.891Z,27.10
2019-02-22T18:39:43.658Z,27.10
2019-02-22T18:42:36.556Z,27.10
2019-02-22T18:45:28.938Z,27.10
2019-02-22T18:48:21.403Z,27.10
2019-02-22T18:51:13.681Z,27.10
2019-02-22T18:54:07.493Z,27.10
2019-02-22T18:56:59.850Z,27.10
2019-02-22T18:59:51.972Z,27.10
2019-02-22T19:02:44.434Z,27.10
2019-02-22T19:05:36.950Z,27.10
2019-02-22T19:08:32.690Z,27.10
2019-02-22T19:11:24.844Z,27.10
2019-02-22T19:14:17.354Z,27.10
2019-02-22T19:17:09.527Z,27.10
2019-02-22T19:20:02.506Z,27.10
2019-02-22T19:22:55.069Z,27.10
2019-02-22T19:25:48.539Z,27.10
2019-02-22T19:28:41.421Z,27.10
2019-02-22T19:31:34.658Z,27.10
2019-02-22T19:34:26.483Z,27.10
2019-02-22T19:37:18.986Z,27.10
2019-02-22T19:40:13.213Z,27.10
2019-02-22T19:43:06.715Z,27.10
2019-02-22T19:46:00.143Z,27.10
2019-02-22T19:48:52.809Z,27.10
2019-02-22T19:51:44.728Z,27.10
2019-02-22T19:54:37.313Z,27.10
2019-02-22T19:57:29.635Z,27.10
2019-02-22T20:00:21.999Z,27.10
2019-02-22T20:03:14.195Z,27.10
2019-02-22T20:06:06.558Z,27.10
2019-02-22T20:08:58.820Z,27.10
2019-02-22T20:11:51.504Z,27.10
2019-02-22T20:14:43.936Z,27.10
2019-02-22T20:17:36.422Z,27.10
2019-02-22T20:20:28.858Z,27.10
2019-02-22T20:23:21.347Z,27.10
2019-02-22T20:26:13.718Z,27.10
2019-02-22T20:29:06.316Z,27.10
2019-02-22T20:31:58.995Z,27.10
2019-02-22T20:34:51.410Z,27.10
2019-02-22T20:37:51.699Z,27.10
2019-02-22T20:40:37.227Z,27.10
2019-02-22T20:43:30.763Z,26.80
2019-02-22T20:46:22.782Z,26.10
2019-02-22T20:49:14.933Z,25.80
2019-02-22T20:52:07.114Z,25.50
2019-02-22T20:54:59.191Z,25.30
2019-02-22T20:57:51.087Z,25.20
2019-02-22T21:00:42.906Z,24.90
2019-02-22T21:03:35.156Z,24.70
2019-02-22T21:06:27.314Z,24.70
2019-02-22T21:09:19.369Z,24.60
2019-02-22T21:12:11.761Z,24.50
2019-02-22T21:15:03.638Z,24.40
2019-02-22T21:17:55.908Z,24.30
2019-02-22T21:20:48.106Z,24.20
2019-02-22T21:23:40.171Z,24.10
2019-02-22T21:26:34.029Z,24.00
2019-02-22T21:29:26.289Z,23.80
2019-02-22T21:32:19.196Z,23.90
2019-02-22T21:35:11.520Z,23.80
2019-02-22T21:38:07.222Z,23.60
2019-02-22T21:40:59.618Z,23.60
2019-02-22T21:43:52.877Z,23.50
2019-02-22T21:46:45.008Z,23.50
2019-02-22T21:49:36.944Z,23.40
2019-02-22T21:52:29.212Z,23.20
2019-02-22T21:55:21.352Z,23.40
2019-02-22T21:58:13.459Z,23.30
2019-02-22T22:01:05.319Z,23.20
2019-02-22T22:03:57.250Z,23.10
2019-02-22T22:06:49.351Z,23.10
2019-02-22T22:09:41.521Z,23.00
2019-02-22T22:12:33.814Z,23.00
2019-02-22T22:15:25.950Z,22.90
2019-02-22T22:18:18.118Z,22.80
2019-02-22T22:21:12.556Z,22.80
2019-02-22T22:24:04.575Z,22.70
2019-02-22T22:26:56.379Z,22.80
2019-02-22T22:29:48.811Z,22.70
2019-02-22T22:32:41.105Z,22.70
2019-02-22T22:35:33.377Z,22.60
2019-02-22T22:38:25.300Z,22.60
2019-02-22T22:41:17.286Z,22.60
2019-02-22T22:44:09.165Z,22.60
2019-02-22T22:47:01.973Z,22.50
2019-02-22T22:49:53.841Z,22.50
2019-02-22T22:52:46.030Z,22.50
2019-02-22T22:55:38.303Z,22.40
2019-02-22T22:58:30.692Z,22.30
2019-02-22T23:01:27.520Z,22.30
2019-02-22T23:04:19.996Z,22.30
2019-02-22T23:07:12.747Z,22.30
2019-02-22T23:10:05.211Z,22.30
2019-02-22T23:12:58.326Z,22.30
2019-02-22T23:15:51.925Z,22.20
2019-02-22T23:18:44.166Z,22.20
2019-02-22T23:21:36.380Z,22.10
2019-02-22T23:24:28.589Z,22.10
2019-02-22T23:27:20.908Z,22.10
2019-02-22T23:30:14.022Z,22.10
2019-02-22T23:33:06.085Z,22.10
2019-02-22T23:36:00.150Z,22.00
2019-02-22T23:38:51.986Z,22.10
2019-02-22T23:41:44.304Z,22.60
2019-02-22T23:44:36.689Z,23.10
2019-02-22T23:47:28.973Z,23.30
2019-02-22T23:50:21.822Z,23.50
2019-02-22T23:53:15.254Z,23.80
2019-02-22T23:56:07.303Z,23.90
2019-02-22T23:59:00.841Z,24.00
